createdAt,value
2019-01-16T00:00:52.845Z,99919.66
2019-01-16T00:04:24.127Z,99920.97
2019-01-16T00:07:58.978Z,99920.52
2019-01-16T00:11:41.059Z,99918.78
2019-01-16T00:15:07.422Z,99908.66
2019-01-16T00:22:47.197Z,99913.91
2019-01-16T00:26:25.284Z,99827.14
2019-01-16T00:30:00.246Z,99900.77
2019-01-16T00:33:39.683Z,99903.80
2019-01-16T00:37:08.569Z,99861.55
2019-01-16T00:40:44.256Z,99905.59
2019-01-16T00:44:18.995Z,99888.52
2019-01-16T00:47:53.332Z,99884.03
2019-01-16T00:51:18.695Z,99883.16
2019-01-16T00:54:33.873Z,99881.02
2019-01-16T00:58:02.047Z,99876.64
2019-01-16T01:01:15.743Z,99869.20
2019-01-16T01:04:44.522Z,99872.75
2019-01-16T01:08:05.989Z,99866.56
2019-01-16T01:11:43.784Z,99865.30
2019-01-16T01:15:12.272Z,99863.49
2019-01-16T01:18:40.513Z,99867.88
2019-01-16T01:22:03.599Z,99863.59
2019-01-16T01:25:25.251Z,99874.09
2019-01-16T01:28:47.562Z,99863.97
2019-01-16T01:32:09.012Z,99863.11
2019-01-16T01:35:30.468Z,99861.73
2019-01-16T01:39:03.799Z,99863.55
2019-01-16T01:42:20.334Z,99859.13
2019-01-16T01:45:41.700Z,99858.33
2019-01-16T01:49:17.015Z,99867.88
2019-01-16T01:52:48.617Z,99869.20
2019-01-16T01:56:15.040Z,99871.47
2019-01-16T01:59:32.560Z,99862.19
2019-01-16T02:02:48.413Z,99867.88
2019-01-16T02:06:17.047Z,99863.44
2019-01-16T02:09:43.047Z,99856.05
2019-01-16T02:13:04.208Z,99860.42
2019-01-16T02:16:23.815Z,99851.23
2019-01-16T02:19:48.521Z,99853.47
2019-01-16T02:23:09.668Z,99865.73
2019-01-16T02:26:35.222Z,99847.77
2019-01-16T02:29:56.703Z,99849.52
2019-01-16T02:33:25.324Z,99846.03
2019-01-16T02:36:56.818Z,99838.97
2019-01-16T02:40:11.324Z,99849.54
2019-01-16T02:43:32.480Z,99851.28
2019-01-16T02:46:53.938Z,99846.03
2019-01-16T02:50:15.471Z,99842.96
2019-01-16T02:53:36.820Z,99845.59
2019-01-16T02:57:06.645Z,99827.58
2019-01-16T03:00:29.691Z,99828.84
2019-01-16T03:03:42.160Z,99823.64
2019-01-16T03:06:55.219Z,99817.50
2019-01-16T03:10:16.291Z,99821.45
2019-01-16T03:13:27.178Z,99816.25
2019-01-16T03:16:53.449Z,99806.61
2019-01-16T03:20:15.041Z,99801.34
2019-01-16T03:23:43.623Z,99803.59
2019-01-16T03:27:05.498Z,99791.27
2019-01-16T03:30:20.322Z,99786.01
2019-01-16T03:33:47.190Z,99786.91
2019-01-16T03:37:10.049Z,99777.75
2019-01-16T03:40:32.801Z,99774.27
2019-01-16T03:43:56.961Z,99760.30
2019-01-16T03:47:14.684Z,99769.93
2019-01-16T03:50:50.330Z,99761.98
2019-01-16T03:54:11.716Z,99768.55
2019-01-16T03:57:27.228Z,99772.98
2019-01-16T04:00:48.356Z,99777.81
2019-01-16T04:03:58.728Z,99769.10
2019-01-16T04:07:18.580Z,99764.30
2019-01-16T04:10:52.416Z,99767.91
2019-01-16T04:14:14.942Z,99768.78
2019-01-16T04:17:34.338Z,99763.58
2019-01-16T04:20:59.635Z,99759.16
2019-01-16T04:24:20.821Z,99748.27
2019-01-16T04:27:52.696Z,99741.69
2019-01-16T04:31:13.876Z,99739.55
2019-01-16T04:34:42.031Z,99732.56
2019-01-16T04:38:04.617Z,99729.06
2019-01-16T04:41:25.746Z,99718.55
2019-01-16T04:45:03.748Z,99706.73
2019-01-16T04:48:36.239Z,99702.30
2019-01-16T04:51:58.098Z,99690.91
2019-01-16T04:55:27.494Z,99687.36
2019-01-16T04:59:02.150Z,99698.80
2019-01-16T05:02:23.808Z,99685.61
2019-01-16T05:05:45.522Z,99680.35
2019-01-16T05:09:08.064Z,99681.28
2019-01-16T05:12:35.132Z,99678.17
2019-01-16T05:15:56.779Z,99671.21
2019-01-16T05:19:18.397Z,99671.60
2019-01-16T05:22:35.615Z,99671.14
2019-01-16T05:26:01.066Z,99660.16
2019-01-16T05:29:23.325Z,99667.20
2019-01-16T05:32:49.663Z,99670.28
2019-01-16T05:36:11.107Z,99663.72
2019-01-16T05:39:50.339Z,99659.27
2019-01-16T05:43:09.118Z,99656.26
2019-01-16T05:46:40.438Z,99656.65
2019-01-16T05:50:18.737Z,99640.06
2019-01-16T05:53:38.970Z,99644.44
2019-01-16T05:56:58.721Z,99639.19
2019-01-16T06:00:17.071Z,99634.75
2019-01-16T06:03:32.198Z,99623.74
2019-01-16T06:06:53.505Z,99624.61
2019-01-16T06:10:10.423Z,99615.86
2019-01-16T06:13:32.894Z,99617.19
2019-01-16T06:17:01.620Z,99614.56
2019-01-16T06:20:26.591Z,99618.05
2019-01-16T06:23:44.637Z,99617.09
2019-01-16T06:27:10.239Z,99634.23
2019-01-16T06:30:36.825Z,99620.66
2019-01-16T06:33:58.266Z,99627.61
2019-01-16T06:37:28.679Z,99619.30
2019-01-16T06:40:49.991Z,99618.03
2019-01-16T06:44:11.612Z,99617.89
2019-01-16T06:47:25.956Z,99613.59
2019-01-16T06:55:11.395Z,99609.59
2019-01-16T06:58:52.367Z,99616.16
2019-01-16T07:02:27.808Z,99611.27
2019-01-16T07:06:10.087Z,99617.45
2019-01-16T07:09:45.476Z,99616.53
2019-01-16T07:13:20.690Z,99516.86
2019-01-16T07:16:43.210Z,99607.19
2019-01-16T07:20:21.756Z,99601.12
2019-01-16T07:24:03.999Z,99562.17
2019-01-16T07:27:39.686Z,99578.36
2019-01-16T07:31:21.661Z,99592.64
2019-01-16T07:34:56.301Z,99592.38
2019-01-16T07:38:38.277Z,99579.44
2019-01-16T07:42:13.431Z,99583.30
2019-01-16T07:45:53.173Z,99591.50
2019-01-16T07:49:34.363Z,99591.13
2019-01-16T07:53:18.231Z,99591.13
2019-01-16T07:56:53.134Z,99592.08
2019-01-16T08:00:26.474Z,99585.86
2019-01-16T08:04:02.124Z,99589.73
2019-01-16T08:07:44.110Z,99581.05
2019-01-16T08:11:19.514Z,99593.40
2019-01-16T08:14:53.071Z,99591.64
2019-01-16T08:18:35.131Z,99552.59
2019-01-16T08:22:09.912Z,99597.84
2019-01-16T08:25:51.881Z,99557.46
2019-01-16T08:29:28.215Z,99610.84
2019-01-16T08:33:10.169Z,99536.53
2019-01-16T08:36:45.397Z,99525.73
2019-01-16T08:40:27.824Z,99609.95
2019-01-16T08:44:02.637Z,99507.83
2019-01-16T08:47:38.912Z,99599.60
2019-01-16T08:51:15.542Z,99599.09
2019-01-16T08:54:57.621Z,99600.09
2019-01-16T08:58:32.755Z,99603.91
2019-01-16T09:02:07.899Z,99609.23
2019-01-16T09:05:40.529Z,99598.66
2019-01-16T09:09:03.400Z,99595.22
2019-01-16T09:12:46.607Z,99588.21
2019-01-16T09:16:28.677Z,99599.53
2019-01-16T09:20:03.729Z,99496.52
2019-01-16T09:23:43.124Z,99599.01
2019-01-16T09:27:25.106Z,99576.89
2019-01-16T09:31:01.087Z,99499.04
2019-01-16T09:34:35.812Z,99585.58
2019-01-16T09:38:11.102Z,99583.77
2019-01-16T09:41:53.073Z,99562.39
2019-01-16T09:45:28.447Z,99569.73
2019-01-16T09:49:00.528Z,99558.08
2019-01-16T09:52:35.501Z,99555.38
2019-01-16T09:56:17.542Z,99557.39
2019-01-16T09:59:58.806Z,99545.80
2019-01-16T10:03:40.782Z,99543.19
2019-01-16T10:07:06.179Z,99544.80
2019-01-16T10:10:41.147Z,99548.34
2019-01-16T10:14:06.115Z,99536.02
2019-01-16T10:17:48.354Z,99527.92
2019-01-16T10:21:23.793Z,99525.48
2019-01-16T10:25:01.851Z,99529.11
2019-01-16T10:28:44.058Z,99519.29
2019-01-16T10:32:18.731Z,99512.72
2019-01-16T10:35:42.807Z,99501.97
2019-01-16T10:39:26.389Z,99510.16
2019-01-16T10:43:01.041Z,99510.27
2019-01-16T10:46:36.657Z,99503.66
2019-01-16T10:50:12.204Z,99503.30
2019-01-16T10:53:48.202Z,99498.65
2019-01-16T10:57:23.418Z,99481.80
2019-01-16T11:00:58.683Z,99483.11
2019-01-16T11:04:40.655Z,99491.72
2019-01-16T11:08:03.161Z,99491.80
2019-01-16T11:15:46.980Z,99473.83
2019-01-16T11:19:10.295Z,99484.41
2019-01-16T11:22:52.282Z,99484.14
2019-01-16T11:26:17.630Z,99469.61
2019-01-16T11:29:59.895Z,99465.82
2019-01-16T11:33:35.195Z,99467.06
2019-01-16T11:37:19.348Z,99449.23
2019-01-16T11:40:46.708Z,99429.96
2019-01-16T11:44:28.656Z,99433.64
2019-01-16T11:48:04.583Z,99420.13
2019-01-16T11:51:46.910Z,99418.33
2019-01-16T11:55:24.962Z,99413.05
2019-01-16T11:58:48.415Z,99398.76
2019-01-16T12:02:38.274Z,99396.77
2019-01-16T12:06:21.169Z,99385.19
2019-01-16T12:10:05.021Z,99387.75
2019-01-16T12:13:38.417Z,99372.50
2019-01-16T12:17:20.396Z,99382.86
2019-01-16T12:20:53.854Z,99364.55
2019-01-16T12:24:41.961Z,99379.31
2019-01-16T12:28:16.960Z,99378.28
2019-01-16T12:32:00.024Z,99401.07
2019-01-16T12:35:35.303Z,99292.92
2019-01-16T12:38:58.940Z,99362.55
2019-01-16T12:42:21.822Z,99346.33
2019-01-16T12:45:43.862Z,99348.55
2019-01-16T12:49:19.147Z,99337.61
2019-01-16T12:53:01.121Z,99319.23
2019-01-16T12:56:36.156Z,99326.65
2019-01-16T13:00:11.527Z,99222.94
2019-01-16T13:03:53.504Z,99231.51
2019-01-16T13:07:28.433Z,99234.13
2019-01-16T13:11:03.637Z,99290.06
2019-01-16T13:14:35.105Z,99277.17
2019-01-16T13:18:08.510Z,99264.50
2019-01-16T13:21:43.262Z,99256.39
2019-01-16T13:25:25.366Z,99261.49
2019-01-16T13:29:00.508Z,99206.17
2019-01-16T13:32:42.449Z,99257.85
2019-01-16T13:36:17.894Z,99246.16
2019-01-16T13:39:59.854Z,99169.36
2019-01-16T13:43:34.502Z,99189.88
2019-01-16T13:47:12.629Z,99230.66
2019-01-16T13:50:54.324Z,99222.61
2019-01-16T13:54:29.860Z,99219.98
2019-01-16T13:58:11.859Z,99221.35
2019-01-16T14:01:50.349Z,99214.78
2019-01-16T14:05:32.392Z,99201.17
2019-01-16T14:09:07.841Z,99203.14
2019-01-16T14:12:49.914Z,99204.52
2019-01-16T14:16:24.965Z,99185.48
2019-01-16T14:20:06.961Z,99184.91
2019-01-16T14:23:41.705Z,99130.02
2019-01-16T14:27:24.178Z,99171.39
2019-01-16T14:30:59.067Z,99155.06
2019-01-16T14:34:34.387Z,99089.75
2019-01-16T14:38:16.355Z,99067.95
2019-01-16T14:41:51.249Z,99117.53
2019-01-16T14:49:27.944Z,99133.59
2019-01-16T14:52:51.400Z,99035.25
2019-01-16T14:56:26.648Z,99125.47
2019-01-16T14:59:53.701Z,99125.69
2019-01-16T15:03:28.863Z,99117.41
2019-01-16T15:07:04.247Z,99116.77
2019-01-16T15:10:39.331Z,99118.50
2019-01-16T15:14:21.326Z,99118.36
2019-01-16T15:17:56.017Z,99115.66
2019-01-16T15:21:31.276Z,99106.35
2019-01-16T15:24:53.620Z,99108.72
2019-01-16T15:28:35.636Z,99096.94
2019-01-16T15:32:10.704Z,99092.43
2019-01-16T15:35:48.153Z,99014.23
2019-01-16T15:39:31.304Z,99090.25
2019-01-16T15:43:06.783Z,99082.81
2019-01-16T15:46:42.366Z,99084.27
2019-01-16T15:50:17.673Z,99089.20
2019-01-16T15:53:59.622Z,99075.62
2019-01-16T15:57:31.536Z,99067.25
2019-01-16T16:01:13.862Z,99063.00
2019-01-16T16:04:48.630Z,98978.05
2019-01-16T16:08:30.642Z,99057.01
2019-01-16T16:12:01.426Z,99046.73
2019-01-16T16:15:43.383Z,98955.39
2019-01-16T16:19:21.881Z,99015.72
2019-01-16T16:22:51.250Z,99002.03
2019-01-16T16:26:25.874Z,99000.00
2019-01-16T16:30:01.333Z,98996.56
2019-01-16T16:33:34.940Z,98989.57
2019-01-16T16:37:10.184Z,98987.80
2019-01-16T16:40:52.465Z,98979.61
2019-01-16T16:44:27.094Z,98966.56
2019-01-16T16:48:02.274Z,98960.20
2019-01-16T16:51:25.360Z,98960.86
2019-01-16T16:55:00.966Z,98960.61
2019-01-16T16:58:42.943Z,98957.81
2019-01-16T17:02:09.809Z,98953.85
2019-01-16T17:05:44.503Z,98952.20
2019-01-16T17:09:26.637Z,98950.89
2019-01-16T17:13:08.429Z,98876.38
2019-01-16T17:16:50.624Z,98949.30
2019-01-16T17:20:32.701Z,98943.80
2019-01-16T17:23:56.948Z,98928.78
2019-01-16T17:27:38.947Z,98928.62
2019-01-16T17:31:01.495Z,98920.41
2019-01-16T17:34:43.498Z,98919.30
2019-01-16T17:38:18.396Z,98907.50
2019-01-16T17:42:00.964Z,98913.19
2019-01-16T17:45:36.687Z,98817.32
2019-01-16T17:49:07.821Z,98897.13
2019-01-16T17:52:43.122Z,98891.98
2019-01-16T17:56:25.107Z,98847.52
2019-01-16T18:00:06.026Z,98886.60
2019-01-16T18:03:50.282Z,98887.83
2019-01-16T18:07:28.761Z,98886.66
2019-01-16T18:11:10.729Z,98806.41
2019-01-16T18:14:48.556Z,98888.27
2019-01-16T18:18:30.539Z,98887.70
2019-01-16T18:22:05.404Z,98886.49
2019-01-16T18:25:48.039Z,98887.13
2019-01-16T18:29:23.429Z,98886.08
2019-01-16T18:33:05.803Z,98880.46
2019-01-16T18:36:44.706Z,98870.77
2019-01-16T18:44:12.939Z,98856.00
2019-01-16T18:47:47.476Z,98866.94
2019-01-16T18:51:18.181Z,98874.66
2019-01-16T18:54:46.812Z,98866.81
2019-01-16T18:58:02.576Z,98848.44
2019-01-16T19:01:25.107Z,98860.53
2019-01-16T19:04:46.613Z,98859.86
2019-01-16T19:08:20.508Z,98864.71
2019-01-16T19:11:40.572Z,98867.92
2019-01-16T19:15:16.436Z,98872.59
2019-01-16T19:18:37.763Z,98853.73
2019-01-16T19:21:58.283Z,98856.09
2019-01-16T19:25:20.856Z,98853.48
2019-01-16T19:28:43.445Z,98860.91
2019-01-16T19:32:14.985Z,98862.77
2019-01-16T19:35:29.517Z,98860.86
2019-01-16T19:38:48.792Z,98852.17
2019-01-16T19:42:18.097Z,98848.09
2019-01-16T19:45:34.084Z,98853.85
2019-01-16T19:48:55.404Z,98839.77
2019-01-16T19:52:33.343Z,98834.66
2019-01-16T19:55:54.800Z,98833.30
2019-01-16T19:59:05.651Z,98831.00
2019-01-16T20:02:27.349Z,98815.84
2019-01-16T20:05:49.590Z,98823.72
2019-01-16T20:09:11.281Z,98827.34
2019-01-16T20:12:32.468Z,98811.66
2019-01-16T20:16:04.605Z,98808.95
2019-01-16T20:19:40.419Z,98826.66
2019-01-16T20:23:17.814Z,98817.38
2019-01-16T20:26:54.612Z,98803.39
2019-01-16T20:30:20.477Z,98791.22
2019-01-16T20:33:35.797Z,98787.76
2019-01-16T20:36:59.627Z,98786.02
2019-01-16T20:40:16.706Z,98766.76
2019-01-16T20:43:48.212Z,98760.73
2019-01-16T20:47:29.179Z,98765.77
2019-01-16T20:50:58.050Z,98754.05
2019-01-16T20:54:28.762Z,98744.42
2019-01-16T20:58:03.240Z,98732.22
2019-01-16T21:01:24.467Z,98729.27
2019-01-16T21:04:51.357Z,98742.66
2019-01-16T21:08:16.696Z,98746.66
2019-01-16T21:11:34.003Z,98726.38
2019-01-16T21:15:04.130Z,98728.64
2019-01-16T21:18:26.765Z,98733.11
2019-01-16T21:21:40.640Z,98748.83
2019-01-16T21:25:05.929Z,98731.61
2019-01-16T21:28:28.563Z,98714.56
2019-01-16T21:32:09.427Z,98725.42
2019-01-16T21:35:33.950Z,98732.31
2019-01-16T21:38:49.235Z,98728.50
2019-01-16T21:42:21.235Z,98737.27
2019-01-16T21:45:45.928Z,98714.42
2019-01-16T21:49:11.217Z,98728.97
2019-01-16T21:52:39.795Z,98707.27
2019-01-16T21:56:03.247Z,98701.84
2019-01-16T21:59:35.244Z,98699.81
2019-01-16T22:03:00.536Z,98702.73
2019-01-16T22:06:23.909Z,98698.70
2019-01-16T22:09:45.042Z,98700.55
2019-01-16T22:13:07.882Z,98699.66
2019-01-16T22:16:28.512Z,98689.61
2019-01-16T22:19:53.809Z,98679.50
2019-01-16T22:23:08.158Z,98676.91
2019-01-16T22:26:26.284Z,98676.78
2019-01-16T22:29:47.443Z,98679.11
2019-01-16T22:33:08.343Z,98681.61
2019-01-16T22:36:33.838Z,98686.69
2019-01-16T22:39:56.069Z,98669.78
2019-01-16T22:43:17.924Z,98673.22
2019-01-16T22:46:37.477Z,98680.55
2019-01-16T22:50:03.714Z,98686.24
2019-01-16T22:53:43.302Z,98675.02
2019-01-16T22:57:14.567Z,98669.61
2019-01-16T23:00:45.175Z,98666.56
2019-01-16T23:04:17.344Z,98654.48
2019-01-16T23:07:36.279Z,98660.99
2019-01-16T23:11:01.940Z,98651.14
2019-01-16T23:14:19.708Z,98656.96
2019-01-16T23:17:43.539Z,98650.44
2019-01-16T23:21:08.860Z,98648.73
2019-01-16T23:24:29.521Z,98647.42
2019-01-16T23:27:43.093Z,98648.00
2019-01-16T23:31:04.386Z,98637.53
2019-01-16T23:34:18.527Z,98642.53
2019-01-16T23:37:39.507Z,98645.02
2019-01-16T23:41:20.935Z,98645.80
2019-01-16T23:44:49.316Z,98643.55
2019-01-16T23:48:10.495Z,98642.63
2019-01-16T23:51:31.687Z,98644.27
2019-01-16T23:54:46.912Z,98640.88
2019-01-16T23:58:15.740Z,98642.03
